sensor_id;sensor_type;location;lat;lon;timestamp;pressure;altitude;pressure_sealevel;temperature;humidity
11413;BME280;5762;43.256;26.960;2024-02-23T00:02:25;100953.65;;;6.67;100.00
11413;BME280;5762;43.256;26.960;2024-02-23T00:04:54;100941.41;;;6.60;100.00
11413;BME280;5762;43.256;26.960;2024-02-23T00:07:22;100937.55;;;6.53;100.00
11413;BME280;5762;43.256;26.960;2024-02-23T00:09:50;100936.31;;;6.61;100.00
11413;BME280;5762;43.256;26.960;2024-02-23T00:12:18;100936.60;;;6.62;100.00
11413;BME280;5762;43.256;26.960;2024-02-23T00:14:47;100915.75;;;6.52;100.00
11413;BME280;5762;43.256;26.960;2024-02-23T00:17:16;100913.55;;;6.35;100.00
11413;BME280;5762;43.256;26.960;2024-02-23T00:19:45;100920.12;;;6.27;100.00
11413;BME280;5762;43.256;26.960;2024-02-23T00:22:14;100920.58;;;6.22;100.00
11413;BME280;5762;43.256;26.960;2024-02-23T00:24:42;100942.39;;;6.25;100.00
11413;BME280;5762;43.256;26.960;2024-02-23T00:27:10;100939.88;;;6.19;100.00
11413;BME280;5762;43.256;26.960;2024-02-23T00:29:39;100953.30;;;6.33;100.00
11413;BME280;5762;43.256;26.960;2024-02-23T00:32:07;100955.41;;;6.45;100.00
11413;BME280;5762;43.256;26.960;2024-02-23T00:34:35;100962.23;;;6.50;100.00
11413;BME280;5762;43.256;26.960;2024-02-23T00:37:04;100965.31;;;6.56;100.00
11413;BME280;5762;43.256;26.960;2024-02-23T00:39:32;100967.23;;;6.58;100.00
11413;BME280;5762;43.256;26.960;2024-02-23T00:42:00;100945.95;;;6.43;100.00
11413;BME280;5762;43.256;26.960;2024-02-23T00:44:29;100916.09;;;6.27;100.00
11413;BME280;5762;43.256;26.960;2024-02-23T00:46:57;100922.76;;;6.25;100.00
11413;BME280;5762;43.256;26.960;2024-02-23T00:49:25;100914.77;;;6.13;100.00
11413;BME280;5762;43.256;26.960;2024-02-23T00:51:53;100920.91;;;6.11;100.00
11413;BME280;5762;43.256;26.960;2024-02-23T00:54:22;100923.30;;;6.10;100.00
11413;BME280;5762;43.256;26.960;2024-02-23T00:56:50;100918.83;;;6.01;100.00
11413;BME280;5762;43.256;26.960;2024-02-23T00:59:19;100927.70;;;6.02;100.00
11413;BME280;5762;43.256;26.960;2024-02-23T01:01:47;100930.81;;;5.96;100.00
11413;BME280;5762;43.256;26.960;2024-02-23T01:04:15;100927.02;;;5.95;100.00
11413;BME280;5762;43.256;26.960;2024-02-23T01:06:43;100913.56;;;5.81;100.00
11413;BME280;5762;43.256;26.960;2024-02-23T01:09:11;100925.31;;;5.89;100.00
11413;BME280;5762;43.256;26.960;2024-02-23T01:11:40;100919.04;;;5.86;100.00
11413;BME280;5762;43.256;26.960;2024-02-23T01:14:08;100921.98;;;5.72;100.00
11413;BME280;5762;43.256;26.960;2024-02-23T01:16:36;100923.38;;;5.75;100.00
11413;BME280;5762;43.256;26.960;2024-02-23T01:19:04;100930.73;;;5.80;100.00
11413;BME280;5762;43.256;26.960;2024-02-23T01:21:33;100919.82;;;5.72;100.00
11413;BME280;5762;43.256;26.960;2024-02-23T01:24:01;100924.78;;;5.78;100.00
11413;BME280;5762;43.256;26.960;2024-02-23T01:26:29;100934.77;;;5.80;100.00
11413;BME280;5762;43.256;26.960;2024-02-23T01:28:57;100934.70;;;5.77;100.00
11413;BME280;5762;43.256;26.960;2024-02-23T01:31:25;100941.48;;;6.05;100.00
11413;BME280;5762;43.256;26.960;2024-02-23T01:33:54;100938.80;;;6.05;100.00
11413;BME280;5762;43.256;26.960;2024-02-23T01:36:22;100929.20;;;6.10;100.00
11413;BME280;5762;43.256;26.960;2024-02-23T01:38:50;100927.38;;;6.13;100.00
11413;BME280;5762;43.256;26.960;2024-02-23T01:41:18;100928.30;;;6.18;100.00
11413;BME280;5762;43.256;26.960;2024-02-23T01:43:46;100938.98;;;6.30;100.00
11413;BME280;5762;43.256;26.960;2024-02-23T01:46:14;100937.12;;;6.30;100.00
11413;BME280;5762;43.256;26.960;2024-02-23T01:48:45;100952.30;;;6.51;100.00
11413;BME280;5762;43.256;26.960;2024-02-23T01:51:13;100936.83;;;6.44;100.00
11413;BME280;5762;43.256;26.960;2024-02-23T01:53:42;100907.59;;;6.33;100.00
11413;BME280;5762;43.256;26.960;2024-02-23T01:56:11;100887.80;;;6.22;100.00
11413;BME280;5762;43.256;26.960;2024-02-23T01:58:41;100888.56;;;6.20;100.00
11413;BME280;5762;43.256;26.960;2024-02-23T02:01:09;100880.45;;;6.18;100.00
11413;BME280;5762;43.256;26.960;2024-02-23T02:03:37;100880.55;;;6.23;100.00
11413;BME280;5762;43.256;26.960;2024-02-23T02:06:06;100869.80;;;6.23;100.00
11413;BME280;5762;43.256;26.960;2024-02-23T02:08:35;100854.09;;;6.17;100.00
11413;BME280;5762;43.256;26.960;2024-02-23T02:11:03;100831.02;;;6.04;100.00
11413;BME280;5762;43.256;26.960;2024-02-23T02:13:31;100824.78;;;6.01;100.00
11413;BME280;5762;43.256;26.960;2024-02-23T02:16:00;100835.57;;;5.90;100.00
11413;BME280;5762;43.256;26.960;2024-02-23T02:18:29;100841.90;;;5.84;100.00
11413;BME280;5762;43.256;26.960;2024-02-23T02:20:57;100855.95;;;5.88;100.00
11413;BME280;5762;43.256;26.960;2024-02-23T02:23:26;100861.05;;;5.87;100.00
11413;BME280;5762;43.256;26.960;2024-02-23T02:25:54;100851.67;;;5.76;100.00
11413;BME280;5762;43.256;26.960;2024-02-23T02:28:23;100866.34;;;5.70;100.00
11413;BME280;5762;43.256;26.960;2024-02-23T02:30:52;100888.80;;;5.79;100.00
11413;BME280;5762;43.256;26.960;2024-02-23T02:33:21;100892.67;;;5.71;100.00
11413;BME280;5762;43.256;26.960;2024-02-23T02:35:49;100898.34;;;5.72;100.00
11413;BME280;5762;43.256;26.960;2024-02-23T02:38:17;100899.20;;;5.75;100.00
11413;BME280;5762;43.256;26.960;2024-02-23T02:40:45;100905.80;;;5.82;100.00
11413;BME280;5762;43.256;26.960;2024-02-23T02:43:13;100914.38;;;5.81;100.00
11413;BME280;5762;43.256;26.960;2024-02-23T02:45:42;100912.56;;;5.84;100.00
11413;BME280;5762;43.256;26.960;2024-02-23T02:48:10;100908.72;;;5.80;100.00
11413;BME280;5762;43.256;26.960;2024-02-23T02:50:39;100923.72;;;5.79;100.00
11413;BME280;5762;43.256;26.960;2024-02-23T02:53:07;100930.50;;;5.81;100.00
11413;BME280;5762;43.256;26.960;2024-02-23T02:55:35;100924.02;;;5.80;100.00
11413;BME280;5762;43.256;26.960;2024-02-23T02:58:03;100906.21;;;5.76;100.00
11413;BME280;5762;43.256;26.960;2024-02-23T03:00:31;100902.23;;;5.79;100.00
11413;BME280;5762;43.256;26.960;2024-02-23T03:03:00;100892.99;;;5.86;100.00
11413;BME280;5762;43.256;26.960;2024-02-23T03:05:28;100888.25;;;5.91;100.00
11413;BME280;5762;43.256;26.960;2024-02-23T03:07:57;100891.53;;;6.07;100.00
11413;BME280;5762;43.256;26.960;2024-02-23T03:10:25;100872.33;;;6.01;100.00
11413;BME280;5762;43.256;26.960;2024-02-23T03:12:53;100879.48;;;6.10;100.00
11413;BME280;5762;43.256;26.960;2024-02-23T03:15:21;100885.67;;;6.10;100.00
11413;BME280;5762;43.256;26.960;2024-02-23T03:17:49;100879.44;;;6.07;100.00
11413;BME280;5762;43.256;26.960;2024-02-23T03:20:18;100878.47;;;5.99;100.00
11413;BME280;5762;43.256;26.960;2024-02-23T03:22:46;100885.14;;;5.96;100.00
11413;BME280;5762;43.256;26.960;2024-02-23T03:25:14;100896.45;;;5.84;100.00
11413;BME280;5762;43.256;26.960;2024-02-23T03:27:42;100922.36;;;5.90;100.00
11413;BME280;5762;43.256;26.960;2024-02-23T03:30:10;100926.60;;;6.00;100.00
11413;BME280;5762;43.256;26.960;2024-02-23T03:32:38;100940.03;;;6.00;100.00
11413;BME280;5762;43.256;26.960;2024-02-23T03:35:06;100945.13;;;5.99;100.00
11413;BME280;5762;43.256;26.960;2024-02-23T03:37:36;100948.16;;;6.03;100.00
11413;BME280;5762;43.256;26.960;2024-02-23T03:40:05;100942.14;;;5.98;100.00
11413;BME280;5762;43.256;26.960;2024-02-23T03:42:34;100925.68;;;5.95;100.00
11413;BME280;5762;43.256;26.960;2024-02-23T03:45:03;100926.16;;;5.92;100.00
11413;BME280;5762;43.256;26.960;2024-02-23T03:47:32;100921.36;;;5.94;100.00
11413;BME280;5762;43.256;26.960;2024-02-23T03:50:00;100934.42;;;6.02;100.00
11413;BME280;5762;43.256;26.960;2024-02-23T03:52:28;100939.19;;;6.12;100.00
11413;BME280;5762;43.256;26.960;2024-02-23T03:54:56;100940.69;;;6.19;100.00
11413;BME280;5762;43.256;26.960;2024-02-23T03:57:24;100933.00;;;6.11;100.00
11413;BME280;5762;43.256;26.960;2024-02-23T03:59:53;100936.61;;;6.17;100.00
11413;BME280;5762;43.256;26.960;2024-02-23T04:02:21;100928.87;;;6.20;100.00
11413;BME280;5762;43.256;26.960;2024-02-23T04:04:50;100925.16;;;6.24;100.00
11413;BME280;5762;43.256;26.960;2024-02-23T04:07:18;100917.89;;;6.22;100.00
11413;BME280;5762;43.256;26.960;2024-02-23T04:09:46;100911.41;;;6.20;100.00
11413;BME280;5762;43.256;26.960;2024-02-23T04:12:14;100915.80;;;6.26;100.00
11413;BME280;5762;43.256;26.960;2024-02-23T04:14:42;100929.39;;;6.34;100.00
11413;BME280;5762;43.256;26.960;2024-02-23T04:17:11;100923.81;;;6.38;100.00
11413;BME280;5762;43.256;26.960;2024-02-23T04:19:42;100935.73;;;6.42;100.00
11413;BME280;5762;43.256;26.960;2024-02-23T04:22:09;100926.98;;;6.49;100.00
11413;BME280;5762;43.256;26.960;2024-02-23T04:24:38;100919.58;;;6.56;100.00
11413;BME280;5762;43.256;26.960;2024-02-23T04:27:06;100916.47;;;6.64;100.00
11413;BME280;5762;43.256;26.960;2024-02-23T04:29:36;100911.80;;;6.74;100.00
11413;BME280;5762;43.256;26.960;2024-02-23T04:32:04;100898.55;;;6.70;100.00
11413;BME280;5762;43.256;26.960;2024-02-23T04:34:33;100892.92;;;6.71;100.00
11413;BME280;5762;43.256;26.960;2024-02-23T04:37:02;100882.41;;;6.70;100.00
11413;BME280;5762;43.256;26.960;2024-02-23T04:39:30;100878.04;;;6.66;100.00
11413;BME280;5762;43.256;26.960;2024-02-23T04:41:58;100883.17;;;6.68;100.00
11413;BME280;5762;43.256;26.960;2024-02-23T04:44:27;100886.69;;;6.68;100.00
11413;BME280;5762;43.256;26.960;2024-02-23T04:46:55;100884.72;;;6.64;100.00
11413;BME280;5762;43.256;26.960;2024-02-23T04:49:23;100863.67;;;6.58;100.00
11413;BME280;5762;43.256;26.960;2024-02-23T04:51:51;100862.05;;;6.57;100.00
11413;BME280;5762;43.256;26.960;2024-02-23T04:54:19;100859.66;;;6.61;100.00
11413;BME280;5762;43.256;26.960;2024-02-23T04:56:48;100843.46;;;6.56;100.00
11413;BME280;5762;43.256;26.960;2024-02-23T04:59:16;100839.91;;;6.53;100.00
11413;BME280;5762;43.256;26.960;2024-02-23T05:01:44;100843.05;;;6.47;100.00
11413;BME280;5762;43.256;26.960;2024-02-23T05:04:12;100863.67;;;6.58;100.00
11413;BME280;5762;43.256;26.960;2024-02-23T05:06:40;100886.00;;;6.76;100.00
11413;BME280;5762;43.256;26.960;2024-02-23T05:09:09;100886.81;;;6.76;100.00
11413;BME280;5762;43.256;26.960;2024-02-23T05:11:37;100869.97;;;6.66;100.00
11413;BME280;5762;43.256;26.960;2024-02-23T05:14:05;100866.08;;;6.57;100.00
11413;BME280;5762;43.256;26.960;2024-02-23T05:16:34;100847.08;;;6.47;100.00
11413;BME280;5762;43.256;26.960;2024-02-23T05:19:02;100856.39;;;6.59;100.00
11413;BME280;5762;43.256;26.960;2024-02-23T05:21:30;100864.59;;;6.66;100.00
11413;BME280;5762;43.256;26.960;2024-02-23T05:23:58;100861.94;;;6.69;100.00
11413;BME280;5762;43.256;26.960;2024-02-23T05:26:26;100854.32;;;6.63;100.00
11413;BME280;5762;43.256;26.960;2024-02-23T05:28:54;100858.54;;;6.57;100.00
11413;BME280;5762;43.256;26.960;2024-02-23T05:31:25;100880.41;;;6.63;100.00
11413;BME280;5762;43.256;26.960;2024-02-23T05:33:52;100891.73;;;6.65;100.00
11413;BME280;5762;43.256;26.960;2024-02-23T05:36:20;100893.08;;;6.65;100.00
11413;BME280;5762;43.256;26.960;2024-02-23T05:38:48;100894.86;;;6.59;100.00
11413;BME280;5762;43.256;26.960;2024-02-23T05:41:16;100909.02;;;6.69;100.00
11413;BME280;5762;43.256;26.960;2024-02-23T05:43:44;100919.34;;;6.75;100.00
11413;BME280;5762;43.256;26.960;2024-02-23T05:46:12;100915.30;;;6.75;100.00
11413;BME280;5762;43.256;26.960;2024-02-23T05:48:41;100916.05;;;6.87;100.00
11413;BME280;5762;43.256;26.960;2024-02-23T05:51:09;100915.66;;;6.97;100.00
11413;BME280;5762;43.256;26.960;2024-02-23T05:53:37;100905.86;;;6.89;100.00
11413;BME280;5762;43.256;26.960;2024-02-23T05:56:05;100903.21;;;6.91;100.00
11413;BME280;5762;43.256;26.960;2024-02-23T05:58:33;100902.73;;;6.97;100.00
11413;BME280;5762;43.256;26.960;2024-02-23T06:01:02;100890.86;;;6.93;100.00
11413;BME280;5762;43.256;26.960;2024-02-23T06:03:30;100891.39;;;6.95;100.00
11413;BME280;5762;43.256;26.960;2024-02-23T06:05:58;100889.23;;;6.94;100.00
11413;BME280;5762;43.256;26.960;2024-02-23T06:08:26;100881.44;;;6.93;100.00
11413;BME280;5762;43.256;26.960;2024-02-23T06:10:54;100881.69;;;6.94;100.00
11413;BME280;5762;43.256;26.960;2024-02-23T06:13:22;100876.75;;;7.05;100.00
11413;BME280;5762;43.256;26.960;2024-02-23T06:15:51;100872.02;;;7.12;100.00
11413;BME280;5762;43.256;26.960;2024-02-23T06:18:19;100862.77;;;7.05;100.00
11413;BME280;5762;43.256;26.960;2024-02-23T06:20:47;100863.87;;;7.07;100.00
11413;BME280;5762;43.256;26.960;2024-02-23T06:23:16;100860.97;;;7.11;100.00
11413;BME280;5762;43.256;26.960;2024-02-23T06:25:44;100851.30;;;7.13;100.00
11413;BME280;5762;43.256;26.960;2024-02-23T06:28:12;100856.30;;;7.23;100.00
11413;BME280;5762;43.256;26.960;2024-02-23T06:30:41;100858.93;;;7.40;100.00
11413;BME280;5762;43.256;26.960;2024-02-23T06:33:09;100860.95;;;7.50;100.00
11413;BME280;5762;43.256;26.960;2024-02-23T06:35:37;100850.80;;;7.57;100.00
11413;BME280;5762;43.256;26.960;2024-02-23T06:38:05;100829.22;;;7.54;100.00
11413;BME280;5762;43.256;26.960;2024-02-23T06:40:33;100826.46;;;7.49;100.00
11413;BME280;5762;43.256;26.960;2024-02-23T06:43:01;100840.14;;;7.45;100.00
11413;BME280;5762;43.256;26.960;2024-02-23T06:45:30;100862.58;;;7.51;100.00
11413;BME280;5762;43.256;26.960;2024-02-23T06:47:58;100887.73;;;7.59;100.00
11413;BME280;5762;43.256;26.960;2024-02-23T06:50:26;100912.55;;;7.83;100.00
11413;BME280;5762;43.256;26.960;2024-02-23T06:52:54;100921.11;;;8.01;100.00
11413;BME280;5762;43.256;26.960;2024-02-23T06:55:22;100907.47;;;8.11;100.00
11413;BME280;5762;43.256;26.960;2024-02-23T06:57:50;100880.95;;;8.27;100.00
11413;BME280;5762;43.256;26.960;2024-02-23T07:00:19;100868.18;;;8.44;100.00
11413;BME280;5762;43.256;26.960;2024-02-23T07:02:48;100871.47;;;8.83;100.00
11413;BME280;5762;43.256;26.960;2024-02-23T07:05:16;100849.48;;;9.06;100.00
11413;BME280;5762;43.256;26.960;2024-02-23T07:07:45;100829.97;;;9.47;100.00
11413;BME280;5762;43.256;26.960;2024-02-23T07:10:13;100767.06;;;9.64;100.00
11413;BME280;5762;43.256;26.960;2024-02-23T07:12:41;100737.61;;;9.78;100.00
11413;BME280;5762;43.256;26.960;2024-02-23T07:15:10;100673.02;;;9.91;100.00
11413;BME280;5762;43.256;26.960;2024-02-23T07:17:38;100664.36;;;9.99;100.00
11413;BME280;5762;43.256;26.960;2024-02-23T07:20:06;100647.31;;;10.22;100.00
11413;BME280;5762;43.256;26.960;2024-02-23T07:22:35;100594.26;;;10.36;100.00
11413;BME280;5762;43.256;26.960;2024-02-23T07:25:04;100546.03;;;10.43;100.00
11413;BME280;5762;43.256;26.960;2024-02-23T07:27:32;100530.05;;;10.47;100.00
11413;BME280;5762;43.256;26.960;2024-02-23T07:30:01;100513.83;;;10.44;100.00
11413;BME280;5762;43.256;26.960;2024-02-23T07:32:29;100518.17;;;10.40;100.00
11413;BME280;5762;43.256;26.960;2024-02-23T07:34:57;100528.17;;;10.42;100.00
11413;BME280;5762;43.256;26.960;2024-02-23T07:37:28;100533.57;;;10.47;100.00
11413;BME280;5762;43.256;26.960;2024-02-23T07:39:56;100526.98;;;10.68;100.00
11413;BME280;5762;43.256;26.960;2024-02-23T07:42:24;100519.92;;;10.72;100.00
11413;BME280;5762;43.256;26.960;2024-02-23T07:44:53;100510.89;;;10.85;100.00
11413;BME280;5762;43.256;26.960;2024-02-23T07:47:21;100500.23;;;11.01;100.00
11413;BME280;5762;43.256;26.960;2024-02-23T07:49:49;100471.63;;;11.19;100.00
11413;BME280;5762;43.256;26.960;2024-02-23T07:52:18;100454.69;;;11.34;100.00
11413;BME280;5762;43.256;26.960;2024-02-23T07:54:46;100440.63;;;11.56;100.00
11413;BME280;5762;43.256;26.960;2024-02-23T07:57:14;100422.05;;;11.71;100.00
11413;BME280;5762;43.256;26.960;2024-02-23T07:59:43;100419.37;;;11.92;100.00
11413;BME280;5762;43.256;26.960;2024-02-23T08:02:11;100402.07;;;12.10;100.00
11413;BME280;5762;43.256;26.960;2024-02-23T08:04:39;100366.30;;;12.24;100.00
11413;BME280;5762;43.256;26.960;2024-02-23T08:07:07;100320.20;;;12.40;100.00
11413;BME280;5762;43.256;26.960;2024-02-23T08:09:35;100265.28;;;12.59;100.00
11413;BME280;5762;43.256;26.960;2024-02-23T08:12:04;100284.03;;;12.74;100.00
11413;BME280;5762;43.256;26.960;2024-02-23T08:14:32;100262.72;;;12.95;100.00
11413;BME280;5762;43.256;26.960;2024-02-23T08:17:00;100248.55;;;13.12;100.00
11413;BME280;5762;43.256;26.960;2024-02-23T08:19:28;100222.83;;;13.21;100.00
11413;BME280;5762;43.256;26.960;2024-02-23T08:21:56;100190.39;;;13.38;100.00
11413;BME280;5762;43.256;26.960;2024-02-23T08:24:24;100177.08;;;13.50;100.00
11413;BME280;5762;43.256;26.960;2024-02-23T08:26:53;100113.96;;;13.62;100.00
11413;BME280;5762;43.256;26.960;2024-02-23T08:29:21;100045.78;;;13.69;100.00
11413;BME280;5762;43.256;26.960;2024-02-23T08:31:49;100007.08;;;13.72;100.00
11413;BME280;5762;43.256;26.960;2024-02-23T08:34:18;99896.39;;;13.82;100.00
11413;BME280;5762;43.256;26.960;2024-02-23T08:36:46;99879.59;;;13.80;100.00
11413;BME280;5762;43.256;26.960;2024-02-23T08:39:14;99843.51;;;13.94;100.00
11413;BME280;5762;43.256;26.960;2024-02-23T08:41:42;99792.16;;;14.09;100.00
11413;BME280;5762;43.256;26.960;2024-02-23T08:44:10;99772.35;;;14.24;100.00
11413;BME280;5762;43.256;26.960;2024-02-23T08:46:38;99802.86;;;14.32;100.00
11413;BME280;5762;43.256;26.960;2024-02-23T08:49:07;99779.56;;;14.28;100.00
11413;BME280;5762;43.256;26.960;2024-02-23T08:51:35;99757.55;;;14.27;100.00
11413;BME280;5762;43.256;26.960;2024-02-23T08:54:03;99741.59;;;14.40;100.00
11413;BME280;5762;43.256;26.960;2024-02-23T08:56:36;99749.48;;;14.65;100.00
11413;BME280;5762;43.256;26.960;2024-02-23T08:59:01;99738.31;;;14.82;100.00
11413;BME280;5762;43.256;26.960;2024-02-23T09:01:30;99730.70;;;14.96;100.00
11413;BME280;5762;43.256;26.960;2024-02-23T09:04:03;99707.27;;;15.03;100.00
11413;BME280;5762;43.256;26.960;2024-02-23T09:06:28;99693.73;;;15.01;100.00
11413;BME280;5762;43.256;26.960;2024-02-23T09:08:56;99710.84;;;15.10;100.00
11413;BME280;5762;43.256;26.960;2024-02-23T09:11:24;99709.26;;;15.24;100.00
11413;BME280;5762;43.256;26.960;2024-02-23T09:13:52;99734.98;;;15.35;100.00
11413;BME280;5762;43.256;26.960;2024-02-23T09:16:21;99690.09;;;15.32;100.00
11413;BME280;5762;43.256;26.960;2024-02-23T09:18:49;99695.41;;;15.29;100.00
11413;BME280;5762;43.256;26.960;2024-02-23T09:21:17;99689.34;;;15.38;100.00
11413;BME280;5762;43.256;26.960;2024-02-23T09:23:46;99689.98;;;15.50;100.00
11413;BME280;5762;43.256;26.960;2024-02-23T09:26:14;99689.89;;;15.52;100.00
11413;BME280;5762;43.256;26.960;2024-02-23T09:28:42;99690.03;;;15.56;100.00
11413;BME280;5762;43.256;26.960;2024-02-23T09:31:11;99676.76;;;15.60;100.00
11413;BME280;5762;43.256;26.960;2024-02-23T09:33:44;99682.42;;;15.76;100.00
11413;BME280;5762;43.256;26.960;2024-02-23T09:36:12;99661.32;;;15.85;100.00
11413;BME280;5762;43.256;26.960;2024-02-23T09:38:40;99649.76;;;16.00;100.00
11413;BME280;5762;43.256;26.960;2024-02-23T09:41:11;99644.45;;;16.10;100.00
11413;BME280;5762;43.256;26.960;2024-02-23T09:43:38;99653.75;;;16.03;100.00
11413;BME280;5762;43.256;26.960;2024-02-23T09:46:07;99643.27;;;15.99;100.00
11413;BME280;5762;43.256;26.960;2024-02-23T09:48:35;99650.70;;;16.11;100.00
11413;BME280;5762;43.256;26.960;2024-02-23T09:51:04;99646.86;;;16.18;100.00
11413;BME280;5762;43.256;26.960;2024-02-23T09:53:34;99634.64;;;16.03;100.00
11413;BME280;5762;43.256;26.960;2024-02-23T09:56:05;99632.77;;;16.34;100.00
11413;BME280;5762;43.256;26.960;2024-02-23T09:58:33;99606.48;;;16.35;100.00
11413;BME280;5762;43.256;26.960;2024-02-23T10:01:02;99602.39;;;16.35;100.00
11413;BME280;5762;43.256;26.960;2024-02-23T10:03:31;99586.91;;;16.33;100.00
11413;BME280;5762;43.256;26.960;2024-02-23T10:06:00;99580.77;;;16.36;100.00
11413;BME280;5762;43.256;26.960;2024-02-23T10:08:28;99567.00;;;16.39;100.00
11413;BME280;5762;43.256;26.960;2024-02-23T10:10:56;99578.28;;;16.50;100.00
11413;BME280;5762;43.256;26.960;2024-02-23T10:13:24;99557.34;;;16.60;100.00
11413;BME280;5762;43.256;26.960;2024-02-23T10:15:53;99568.84;;;16.84;100.00
11413;BME280;5762;43.256;26.960;2024-02-23T10:18:21;99554.94;;;16.89;100.00
11413;BME280;5762;43.256;26.960;2024-02-23T10:20:49;99547.20;;;16.85;100.00
11413;BME280;5762;43.256;26.960;2024-02-23T10:23:17;99546.28;;;16.93;100.00
11413;BME280;5762;43.256;26.960;2024-02-23T10:25:46;99536.09;;;17.05;100.00
11413;BME280;5762;43.256;26.960;2024-02-23T10:28:14;99509.78;;;17.01;100.00
11413;BME280;5762;43.256;26.960;2024-02-23T10:30:43;99511.55;;;17.21;100.00
11413;BME280;5762;43.256;26.960;2024-02-23T10:33:11;99502.62;;;17.30;100.00
11413;BME280;5762;43.256;26.960;2024-02-23T10:35:40;99491.52;;;17.61;100.00
11413;BME280;5762;43.256;26.960;2024-02-23T10:38:10;99467.37;;;17.57;100.00
11413;BME280;5762;43.256;26.960;2024-02-23T10:40:39;99446.63;;;17.56;100.00
11413;BME280;5762;43.256;26.960;2024-02-23T10:43:12;99427.58;;;17.75;100.00
11413;BME280;5762;43.256;26.960;2024-02-23T10:45:59;99406.61;;;17.89;100.00
11413;BME280;5762;43.256;26.960;2024-02-23T10:48:28;99400.39;;;17.82;100.00
11413;BME280;5762;43.256;26.960;2024-02-23T10:50:56;99395.57;;;17.85;100.00
11413;BME280;5762;43.256;26.960;2024-02-23T10:53:26;99384.39;;;18.00;100.00
11413;BME280;5762;43.256;26.960;2024-02-23T10:55:56;99386.12;;;18.08;100.00
11413;BME280;5762;43.256;26.960;2024-02-23T10:58:26;99385.80;;;18.19;100.00
11413;BME280;5762;43.256;26.960;2024-02-23T11:00:58;99385.98;;;18.36;100.00
11413;BME280;5762;43.256;26.960;2024-02-23T11:03:25;99381.41;;;18.24;100.00
11413;BME280;5762;43.256;26.960;2024-02-23T11:05:54;99379.48;;;18.34;100.00
11413;BME280;5762;43.256;26.960;2024-02-23T11:08:22;99376.89;;;18.51;100.00
11413;BME280;5762;43.256;26.960;2024-02-23T11:10:51;99389.63;;;18.69;100.00
11413;BME280;5762;43.256;26.960;2024-02-23T11:13:30;99384.69;;;18.59;100.00
11413;BME280;5762;43.256;26.960;2024-02-23T11:16:02;99390.74;;;18.58;100.00
11413;BME280;5762;43.256;26.960;2024-02-23T11:18:28;99386.59;;;18.64;100.00
11413;BME280;5762;43.256;26.960;2024-02-23T11:20:58;99386.23;;;18.66;100.00
11413;BME280;5762;43.256;26.960;2024-02-23T11:23:25;99385.45;;;18.65;100.00
11413;BME280;5762;43.256;26.960;2024-02-23T11:28:32;99381.22;;;18.52;100.00
11413;BME280;5762;43.256;26.960;2024-02-23T11:31:01;99377.46;;;18.51;97.93
11413;BME280;5762;43.256;26.960;2024-02-23T11:33:29;99378.69;;;18.53;93.87
11413;BME280;5762;43.256;26.960;2024-02-23T11:36:05;99366.77;;;18.71;96.29
11413;BME280;5762;43.256;26.960;2024-02-23T11:38:34;99364.28;;;18.75;85.70
11413;BME280;5762;43.256;26.960;2024-02-23T11:41:02;99358.01;;;18.75;86.64
11413;BME280;5762;43.256;26.960;2024-02-23T11:43:33;99356.56;;;18.81;81.74
11413;BME280;5762;43.256;26.960;2024-02-23T11:46:02;99360.82;;;18.79;81.22
11413;BME280;5762;43.256;26.960;2024-02-23T11:48:31;99355.51;;;18.66;79.37
11413;BME280;5762;43.256;26.960;2024-02-23T11:50:59;99354.57;;;18.68;77.90
11413;BME280;5762;43.256;26.960;2024-02-23T11:53:27;99354.25;;;18.73;76.20
11413;BME280;5762;43.256;26.960;2024-02-23T11:55:57;99354.25;;;18.83;69.04
11413;BME280;5762;43.256;26.960;2024-02-23T11:58:25;99340.97;;;18.95;61.30
11413;BME280;5762;43.256;26.960;2024-02-23T12:00:55;99347.70;;;19.11;61.32
11413;BME280;5762;43.256;26.960;2024-02-23T12:03:23;99352.72;;;19.05;64.86
11413;BME280;5762;43.256;26.960;2024-02-23T12:05:51;99352.02;;;18.89;62.97
11413;BME280;5762;43.256;26.960;2024-02-23T12:08:19;99351.22;;;18.79;63.92
11413;BME280;5762;43.256;26.960;2024-02-23T12:10:49;99346.03;;;18.73;64.91
11413;BME280;5762;43.256;26.960;2024-02-23T12:13:18;99345.20;;;18.69;65.40
11413;BME280;5762;43.256;26.960;2024-02-23T12:15:47;99345.30;;;18.48;67.63
11413;BME280;5762;43.256;26.960;2024-02-23T12:18:15;99340.58;;;18.64;73.34
11413;BME280;5762;43.256;26.960;2024-02-23T12:20:43;99331.17;;;18.74;67.61
11413;BME280;5762;43.256;26.960;2024-02-23T12:23:13;99332.64;;;18.68;66.66
11413;BME280;5762;43.256;26.960;2024-02-23T12:25:51;99334.16;;;18.66;66.90
11413;BME280;5762;43.256;26.960;2024-02-23T12:28:11;99332.39;;;18.77;69.69
11413;BME280;5762;43.256;26.960;2024-02-23T12:30:39;99332.83;;;18.79;68.42
11413;BME280;5762;43.256;26.960;2024-02-23T12:33:07;99327.25;;;18.95;68.75
11413;BME280;5762;43.256;26.960;2024-02-23T12:35:35;99335.86;;;19.16;70.12
11413;BME280;5762;43.256;26.960;2024-02-23T12:38:04;99332.48;;;19.36;69.70
11413;BME280;5762;43.256;26.960;2024-02-23T12:40:32;99335.81;;;19.49;69.03
11413;BME280;5762;43.256;26.960;2024-02-23T12:43:00;99330.47;;;19.56;69.74
11413;BME280;5762;43.256;26.960;2024-02-23T12:45:28;99335.66;;;19.61;72.73
11413;BME280;5762;43.256;26.960;2024-02-23T12:47:56;99328.89;;;19.55;70.17
11413;BME280;5762;43.256;26.960;2024-02-23T12:50:24;99326.41;;;19.59;71.80
11413;BME280;5762;43.256;26.960;2024-02-23T12:52:53;99329.84;;;19.43;66.92
11413;BME280;5762;43.256;26.960;2024-02-23T12:55:21;99323.28;;;19.02;70.25
11413;BME280;5762;43.256;26.960;2024-02-23T12:57:49;99324.00;;;18.99;72.27
11413;BME280;5762;43.256;26.960;2024-02-23T13:00:17;99325.23;;;19.01;74.30